createdAt,value
2018-11-07T00:00:09.360Z,60.97
2018-11-07T00:02:38.463Z,66.13
2018-11-07T00:05:07.684Z,64.43
2018-11-07T00:07:36.844Z,57.40
2018-11-07T00:10:11.800Z,60.53
2018-11-07T00:12:40.852Z,59.20
2018-11-07T00:15:13.754Z,53.97
2018-11-07T00:17:43.022Z,57.83
2018-11-07T00:20:12.666Z,50.53
2018-11-07T00:22:41.793Z,60.10
2018-11-07T00:25:11.413Z,57.93
2018-11-07T00:27:40.691Z,54.37
2018-11-07T00:30:10.698Z,55.03
2018-11-07T00:32:39.912Z,57.63
2018-11-07T00:35:10.204Z,53.80
2018-11-07T00:37:39.453Z,55.83
2018-11-07T00:40:08.599Z,61.90
2018-11-07T00:42:37.587Z,60.20
2018-11-07T00:45:10.655Z,64.33
2018-11-07T00:47:39.776Z,69.23
2018-11-07T00:50:12.468Z,63.23
2018-11-07T00:52:42.119Z,61.73
2018-11-07T00:55:11.739Z,63.90
2018-11-07T00:57:40.904Z,57.07
2018-11-07T01:00:12.963Z,62.50
2018-11-07T01:02:42.013Z,62.90
2018-11-07T01:05:12.360Z,65.97
2018-11-07T01:07:42.449Z,62.33
2018-11-07T01:10:11.504Z,60.60
2018-11-07T01:12:41.545Z,55.97
2018-11-07T01:15:11.356Z,54.93
2018-11-07T01:17:41.063Z,58.07
2018-11-07T01:20:12.176Z,57.67
2018-11-07T01:22:41.221Z,60.97
2018-11-07T01:25:10.327Z,52.17
2018-11-07T01:27:39.394Z,60.63
2018-11-07T01:30:11.556Z,56.63
2018-11-07T01:32:40.771Z,56.73
2018-11-07T01:35:10.225Z,58.20
2018-11-07T01:37:39.355Z,58.77
2018-11-07T01:40:12.141Z,56.27
2018-11-07T01:42:41.534Z,61.93
2018-11-07T01:45:11.760Z,64.17
2018-11-07T01:47:40.847Z,66.27
2018-11-07T01:50:12.105Z,60.00
2018-11-07T01:52:41.342Z,66.60
2018-11-07T01:55:10.671Z,58.33
2018-11-07T01:57:39.748Z,64.13
2018-11-07T02:00:11.160Z,64.87
2018-11-07T02:02:41.295Z,63.40
2018-11-07T02:05:10.457Z,64.20
2018-11-07T02:07:39.838Z,57.67
2018-11-07T02:10:09.840Z,61.87
2018-11-07T02:12:39.333Z,57.50
2018-11-07T02:15:09.140Z,58.00
2018-11-07T02:17:38.900Z,55.20
2018-11-07T02:20:09.960Z,59.40
2018-11-07T02:22:39.060Z,58.97
2018-11-07T02:25:08.446Z,60.10
2018-11-07T02:27:37.796Z,56.13
2018-11-07T02:30:10.261Z,47.43
2018-11-07T02:32:39.322Z,50.67
2018-11-07T02:35:08.421Z,53.60
2018-11-07T02:37:37.646Z,58.30
2018-11-07T02:40:07.732Z,54.70
2018-11-07T02:42:36.901Z,56.77
2018-11-07T02:45:06.563Z,56.03
2018-11-07T02:47:35.731Z,53.50
2018-11-07T02:50:05.791Z,52.77
2018-11-07T02:52:34.903Z,59.17
2018-11-07T02:55:04.346Z,63.03
2018-11-07T02:57:33.425Z,60.10
2018-11-07T03:00:02.581Z,58.50
2018-11-07T03:02:31.684Z,58.07
2018-11-07T03:05:00.866Z,56.00
2018-11-07T03:07:30.702Z,61.87
2018-11-07T03:09:59.843Z,62.67
2018-11-07T03:12:28.984Z,65.60
2018-11-07T03:14:58.023Z,59.60
2018-11-07T03:17:27.072Z,62.73
2018-11-07T03:19:56.130Z,66.40
2018-11-07T03:22:25.243Z,62.30
2018-11-07T03:24:54.342Z,59.17
2018-11-07T03:27:23.558Z,56.23
2018-11-07T03:29:52.616Z,61.47
2018-11-07T03:32:21.640Z,60.43
2018-11-07T03:34:50.655Z,55.87
2018-11-07T03:37:19.749Z,63.63
2018-11-07T03:39:48.776Z,60.27
2018-11-07T03:42:17.800Z,59.50
2018-11-07T03:44:46.882Z,58.80
2018-11-07T03:47:15.932Z,59.33
2018-11-07T03:49:45.056Z,53.53
2018-11-07T03:52:14.095Z,58.67
2018-11-07T03:54:43.146Z,63.83
2018-11-07T03:57:12.243Z,60.00
2018-11-07T03:59:41.257Z,58.17
2018-11-07T04:02:10.345Z,55.43
2018-11-07T04:04:39.395Z,57.50
2018-11-07T04:07:09.462Z,59.77
2018-11-07T04:09:38.506Z,59.13
2018-11-07T04:12:07.573Z,59.57
2018-11-07T04:14:36.590Z,58.87
2018-11-07T04:17:05.636Z,56.90
2018-11-07T04:19:34.703Z,54.33
2018-11-07T04:22:03.778Z,63.87
2018-11-07T04:24:32.816Z,62.07
2018-11-07T04:27:01.870Z,63.83
2018-11-07T04:29:30.923Z,56.57
2018-11-07T04:31:59.982Z,58.37
2018-11-07T04:34:29.213Z,61.67
2018-11-07T04:36:58.269Z,57.10
2018-11-07T04:39:27.377Z,61.33
2018-11-07T04:41:56.476Z,59.97
2018-11-07T04:44:26.327Z,62.23
2018-11-07T04:46:55.375Z,64.40
2018-11-07T04:49:24.413Z,60.87
2018-11-07T04:51:53.560Z,63.90
2018-11-07T04:54:22.581Z,56.43
2018-11-07T04:56:51.621Z,59.37
2018-11-07T04:59:20.786Z,58.80
2018-11-07T05:01:49.905Z,68.07
2018-11-07T05:04:18.947Z,58.90
2018-11-07T05:06:48.150Z,61.53
2018-11-07T05:09:17.287Z,61.43
2018-11-07T05:11:46.364Z,62.60
2018-11-07T05:14:15.423Z,65.67
2018-11-07T05:16:44.472Z,63.73
2018-11-07T05:19:13.516Z,60.90
2018-11-07T05:21:42.554Z,65.70
2018-11-07T05:24:11.694Z,76.57
2018-11-07T05:26:40.834Z,68.97
2018-11-07T05:29:09.998Z,76.33
2018-11-07T05:31:39.100Z,79.90
2018-11-07T05:34:08.189Z,67.33
2018-11-07T05:36:37.312Z,86.10
2018-11-07T05:39:08.937Z,86.93
2018-11-07T05:41:38.098Z,84.37
2018-11-07T05:44:07.359Z,76.60
2018-11-07T05:46:36.477Z,70.10
2018-11-07T05:49:05.695Z,74.10
2018-11-07T05:51:34.643Z,68.47
2018-11-07T05:54:03.869Z,63.17
2018-11-07T05:56:32.974Z,65.83
2018-11-07T05:59:02.671Z,61.80
2018-11-07T06:01:32.130Z,60.77
2018-11-07T06:04:01.182Z,58.00
2018-11-07T06:06:30.281Z,54.27
2018-11-07T06:08:59.970Z,58.80
2018-11-07T06:11:29.961Z,54.47
2018-11-07T06:13:58.965Z,53.23
2018-11-07T06:16:28.032Z,58.43
2018-11-07T06:18:57.124Z,58.70
2018-11-07T06:21:26.225Z,50.20
2018-11-07T06:23:55.324Z,51.07
2018-11-07T06:26:24.400Z,55.90
2018-11-07T06:28:53.563Z,60.73
2018-11-07T06:31:22.644Z,55.77
2018-11-07T06:33:51.763Z,55.90
2018-11-07T06:36:20.795Z,51.87
2018-11-07T06:38:49.870Z,56.50
2018-11-07T06:41:18.923Z,50.83
2018-11-07T06:43:47.976Z,52.60
2018-11-07T06:46:17.009Z,57.70
2018-11-07T06:48:46.051Z,52.80
2018-11-07T06:51:15.128Z,58.37
2018-11-07T06:53:44.151Z,50.47
2018-11-07T06:56:13.403Z,55.27
2018-11-07T06:58:42.547Z,55.37
2018-11-07T07:01:11.652Z,59.27
2018-11-07T07:03:40.738Z,50.07
2018-11-07T07:06:09.841Z,51.70
2018-11-07T07:08:38.876Z,55.70
2018-11-07T07:11:07.920Z,59.43
2018-11-07T07:13:37.088Z,55.10
2018-11-07T07:16:06.283Z,50.80
2018-11-07T07:18:35.365Z,52.47
2018-11-07T07:21:05.661Z,49.47
2018-11-07T07:23:34.707Z,52.73
2018-11-07T07:26:03.905Z,54.30
2018-11-07T07:28:33.004Z,54.00
2018-11-07T07:31:02.119Z,54.43
2018-11-07T07:33:31.205Z,58.73
2018-11-07T07:36:00.297Z,53.73
2018-11-07T07:38:29.315Z,54.90
2018-11-07T07:40:58.371Z,58.90
2018-11-07T07:43:27.385Z,53.97
2018-11-07T07:45:56.427Z,52.33
2018-11-07T07:48:25.592Z,55.73
2018-11-07T07:50:54.689Z,54.47
2018-11-07T07:53:23.730Z,53.53
2018-11-07T07:55:52.752Z,49.37
2018-11-07T07:58:21.777Z,55.10
2018-11-07T08:00:50.836Z,52.83
2018-11-07T08:03:20.018Z,53.10
2018-11-07T08:05:49.106Z,46.70
2018-11-07T08:08:18.199Z,44.37
2018-11-07T08:10:47.324Z,44.13
2018-11-07T08:13:16.577Z,42.70
2018-11-07T08:15:45.717Z,42.33
2018-11-07T08:18:14.783Z,46.77
2018-11-07T08:20:43.874Z,43.03
2018-11-07T08:23:12.963Z,41.13
2018-11-07T08:25:42.017Z,40.70
2018-11-07T08:28:11.106Z,36.83
2018-11-07T08:30:40.209Z,38.83
2018-11-07T08:33:09.212Z,37.50
2018-11-07T08:35:38.239Z,37.83
2018-11-07T08:38:07.274Z,33.67
2018-11-07T08:40:37.003Z,35.53
2018-11-07T08:43:06.104Z,33.23
2018-11-07T08:45:35.254Z,30.83
2018-11-07T08:48:04.587Z,27.07
2018-11-07T08:50:33.631Z,28.23
2018-11-07T08:53:02.978Z,28.27
2018-11-07T08:55:32.116Z,32.30
2018-11-07T08:58:02.183Z,31.20
2018-11-07T09:00:31.450Z,29.60
2018-11-07T09:03:00.899Z,28.37
2018-11-07T09:05:30.298Z,30.07
2018-11-07T09:08:00.293Z,29.13
2018-11-07T09:10:29.522Z,29.17
2018-11-07T09:12:58.844Z,30.00
2018-11-07T09:15:28.205Z,28.30
2018-11-07T09:17:57.321Z,29.03
2018-11-07T09:20:26.457Z,29.43
2018-11-07T09:22:56.492Z,29.33
2018-11-07T09:25:26.933Z,27.67
2018-11-07T09:27:56.234Z,26.90
2018-11-07T09:30:26.358Z,28.40
2018-11-07T09:32:57.892Z,29.47
2018-11-07T09:35:27.957Z,26.50
2018-11-07T09:37:58.730Z,27.87
2018-11-07T09:40:28.124Z,27.50
2018-11-07T09:42:57.815Z,26.70
2018-11-07T09:45:27.002Z,25.23
2018-11-07T09:47:56.116Z,24.67
2018-11-07T09:50:25.216Z,26.43
2018-11-07T09:52:54.272Z,26.70
2018-11-07T09:55:23.459Z,25.07
2018-11-07T09:57:52.513Z,20.70
2018-11-07T10:00:21.967Z,25.57
2018-11-07T10:02:51.047Z,25.93
2018-11-07T10:05:20.825Z,24.10
2018-11-07T10:07:49.961Z,22.33
2018-11-07T10:10:20.344Z,22.77
2018-11-07T10:12:49.472Z,22.83
2018-11-07T10:15:18.836Z,23.20
2018-11-07T10:17:47.886Z,23.03
2018-11-07T10:20:18.386Z,24.03
2018-11-07T10:22:47.993Z,22.53
2018-11-07T10:25:17.176Z,24.40
2018-11-07T10:27:46.607Z,24.87
2018-11-07T10:30:16.981Z,24.47
2018-11-07T10:32:47.121Z,23.17
2018-11-07T10:35:16.262Z,22.97
2018-11-07T10:37:45.361Z,21.37
2018-11-07T10:40:16.500Z,21.60
2018-11-07T10:42:46.118Z,22.20
2018-11-07T10:45:15.223Z,21.53
2018-11-07T10:47:45.291Z,22.33
2018-11-07T10:50:15.431Z,19.83
2018-11-07T10:52:45.088Z,22.83
2018-11-07T10:55:14.851Z,22.43
2018-11-07T10:57:43.944Z,24.83
2018-11-07T11:00:20.176Z,22.00
2018-11-07T11:03:55.122Z,22.77
2018-11-07T11:06:24.193Z,23.23
2018-11-07T11:08:53.410Z,23.33
2018-11-07T11:11:22.649Z,21.83
2018-11-07T11:13:51.751Z,21.93
2018-11-07T11:16:20.859Z,23.87
2018-11-07T11:18:49.983Z,22.23
2018-11-07T11:21:19.094Z,21.10
2018-11-07T11:23:48.175Z,22.27
2018-11-07T11:26:17.273Z,20.63
2018-11-07T11:28:46.318Z,21.00
2018-11-07T11:31:15.369Z,20.97
2018-11-07T11:33:44.600Z,20.30
2018-11-07T11:36:14.322Z,20.73
2018-11-07T11:38:43.428Z,21.03
2018-11-07T11:41:12.777Z,23.13
2018-11-07T11:43:41.798Z,21.97
2018-11-07T11:46:10.848Z,23.23
2018-11-07T11:48:39.915Z,22.20
2018-11-07T11:51:09.065Z,21.17
2018-11-07T11:53:38.391Z,22.20
2018-11-07T11:56:07.523Z,22.90
2018-11-07T11:58:36.525Z,21.93
2018-11-07T12:01:06.157Z,24.50
2018-11-07T12:03:35.283Z,21.17
2018-11-07T12:06:04.708Z,21.87
2018-11-07T12:08:33.935Z,21.30
2018-11-07T12:11:02.834Z,20.37
2018-11-07T12:13:31.959Z,21.50
2018-11-07T12:16:00.959Z,23.90
2018-11-07T12:18:30.004Z,22.50
2018-11-07T12:20:59.304Z,23.93
2018-11-07T12:23:28.426Z,23.27
2018-11-07T12:25:57.580Z,22.37
2018-11-07T12:28:26.719Z,24.00
2018-11-07T12:30:55.891Z,23.90
2018-11-07T12:33:24.967Z,22.50
2018-11-07T12:35:54.062Z,23.23
2018-11-07T12:38:23.195Z,24.40
2018-11-07T12:40:52.298Z,24.13
2018-11-07T12:43:21.387Z,25.00
2018-11-07T12:45:50.463Z,24.47
2018-11-07T12:48:19.515Z,25.10
2018-11-07T12:50:48.586Z,25.40
2018-11-07T12:53:17.703Z,26.83
2018-11-07T12:55:46.769Z,26.20
2018-11-07T12:58:15.988Z,27.03
2018-11-07T13:00:45.005Z,28.20
2018-11-07T13:03:14.181Z,30.87
2018-11-07T13:05:43.265Z,32.07
2018-11-07T13:08:12.453Z,31.27
2018-11-07T13:10:41.668Z,32.23
2018-11-07T13:13:10.729Z,31.30
2018-11-07T13:15:39.804Z,32.57
2018-11-07T13:18:08.978Z,30.63
2018-11-07T13:20:38.108Z,32.23
2018-11-07T13:23:07.137Z,31.83
2018-11-07T13:25:36.213Z,28.23
2018-11-07T13:28:05.488Z,29.50
2018-11-07T13:30:34.543Z,31.60
2018-11-07T13:33:03.581Z,31.57
2018-11-07T13:35:32.644Z,31.43
2018-11-07T13:38:02.061Z,32.00
2018-11-07T13:40:30.816Z,32.10
2018-11-07T13:42:59.982Z,32.20
2018-11-07T13:45:29.034Z,31.73
2018-11-07T13:47:58.084Z,30.27
2018-11-07T13:50:27.197Z,31.47
2018-11-07T13:52:56.387Z,32.33
2018-11-07T13:55:25.466Z,31.60
2018-11-07T13:57:54.560Z,29.77
2018-11-07T14:00:23.944Z,33.00
2018-11-07T14:02:53.648Z,30.83
2018-11-07T14:05:22.916Z,29.67
2018-11-07T14:07:51.918Z,31.90
2018-11-07T14:10:22.055Z,31.33
2018-11-07T14:12:51.645Z,30.07
2018-11-07T14:15:20.883Z,31.73
2018-11-07T14:17:50.284Z,28.93
2018-11-07T14:20:19.572Z,30.37
2018-11-07T14:22:48.663Z,32.30
2018-11-07T14:25:17.768Z,31.67
2018-11-07T14:27:47.171Z,27.73
2018-11-07T14:30:18.363Z,31.83
2018-11-07T14:32:53.854Z,32.10
2018-11-07T14:35:23.276Z,31.87
2018-11-07T14:37:53.201Z,32.53
2018-11-07T14:40:22.388Z,33.93
2018-11-07T14:42:51.565Z,32.93
2018-11-07T14:45:20.841Z,32.03
2018-11-07T14:47:50.205Z,31.67
2018-11-07T14:50:19.184Z,33.20
2018-11-07T14:52:48.292Z,35.30
2018-11-07T14:55:17.368Z,32.80
2018-11-07T14:57:46.418Z,32.63
2018-11-07T15:00:16.177Z,35.23
2018-11-07T15:02:45.900Z,31.80
2018-11-07T15:05:15.778Z,33.73
2018-11-07T15:07:45.071Z,35.70
2018-11-07T15:10:15.225Z,36.70
2018-11-07T15:12:44.346Z,33.83
2018-11-07T15:15:14.851Z,36.53
2018-11-07T15:17:44.021Z,36.23
2018-11-07T15:20:14.211Z,37.13
2018-11-07T15:22:43.338Z,36.20
2018-11-07T15:25:13.683Z,34.97
2018-11-07T15:27:43.983Z,35.07
2018-11-07T15:30:14.255Z,36.33
2018-11-07T15:32:43.936Z,36.17
2018-11-07T15:35:13.258Z,37.50
2018-11-07T15:37:42.350Z,38.07
2018-11-07T15:40:13.273Z,36.70
2018-11-07T15:42:42.749Z,40.67
2018-11-07T15:45:15.458Z,37.50
2018-11-07T15:47:44.676Z,38.30
2018-11-07T15:50:19.217Z,38.97
2018-11-07T15:52:48.701Z,40.47
2018-11-07T15:55:17.936Z,41.80
2018-11-07T15:57:47.012Z,40.27
2018-11-07T16:00:17.129Z,40.17
2018-11-07T16:02:46.286Z,40.50
2018-11-07T16:05:16.059Z,38.33
2018-11-07T16:07:45.133Z,36.90
2018-11-07T16:10:14.925Z,39.13
2018-11-07T16:12:43.973Z,41.70
2018-11-07T16:15:15.318Z,41.07
2018-11-07T16:17:44.670Z,43.50
2018-11-07T16:20:18.003Z,39.90
2018-11-07T16:22:47.806Z,39.60
2018-11-07T16:25:17.652Z,38.00
2018-11-07T16:27:46.760Z,39.77
2018-11-07T16:30:18.066Z,40.13
2018-11-07T16:32:47.096Z,43.30
2018-11-07T16:35:16.362Z,41.93
2018-11-07T16:37:45.407Z,36.97
2018-11-07T16:40:15.871Z,37.53
2018-11-07T16:42:45.340Z,37.13
2018-11-07T16:45:15.565Z,36.53
2018-11-07T16:47:44.814Z,37.23
2018-11-07T16:50:14.839Z,33.63
2018-11-07T16:52:43.965Z,35.27
2018-11-07T16:55:13.348Z,36.57
2018-11-07T16:57:42.439Z,37.03
2018-11-07T17:00:19.666Z,36.10
2018-11-07T17:02:49.481Z,36.57
2018-11-07T17:05:19.079Z,35.40
2018-11-07T17:07:48.392Z,35.77
2018-11-07T17:10:17.536Z,33.80
2018-11-07T17:12:46.577Z,34.83
2018-11-07T17:15:15.783Z,34.63
2018-11-07T17:17:44.900Z,37.20
2018-11-07T17:20:14.913Z,34.53
2018-11-07T17:22:44.344Z,36.13
2018-11-07T17:25:17.345Z,36.03
2018-11-07T17:27:46.503Z,41.30
2018-11-07T17:30:16.808Z,40.70
2018-11-07T17:32:45.918Z,39.37
2018-11-07T17:35:16.768Z,42.93
2018-11-07T17:37:46.772Z,42.00
2018-11-07T17:40:20.547Z,42.40
2018-11-07T17:42:49.882Z,39.90
2018-11-07T17:45:23.022Z,36.57
2018-11-07T17:47:53.800Z,37.17
2018-11-07T17:50:23.403Z,37.77
2018-11-07T17:52:53.249Z,36.67
2018-11-07T17:55:22.697Z,38.23
2018-11-07T17:57:52.479Z,36.07
2018-11-07T18:00:26.660Z,41.13
2018-11-07T18:02:55.911Z,42.63
2018-11-07T18:05:25.132Z,44.23
2018-11-07T18:07:54.432Z,40.37
2018-11-07T18:10:23.668Z,41.70
2018-11-07T18:12:52.856Z,37.50
2018-11-07T18:15:23.560Z,41.53
2018-11-07T18:17:52.941Z,41.43
2018-11-07T18:20:24.568Z,43.70
2018-11-07T18:22:54.359Z,42.03
2018-11-07T18:25:23.571Z,38.17
2018-11-07T18:27:53.417Z,35.77
2018-11-07T18:30:22.838Z,35.00
2018-11-07T18:32:52.061Z,32.40
2018-11-07T18:35:21.399Z,33.07
2018-11-07T18:37:50.523Z,36.07
2018-11-07T18:40:20.421Z,29.43
2018-11-07T18:42:49.524Z,40.73
2018-11-07T18:45:18.764Z,34.20
2018-11-07T18:47:47.955Z,34.73
2018-11-07T18:50:18.474Z,34.73
2018-11-07T18:52:47.542Z,34.53
2018-11-07T18:55:17.210Z,33.17
2018-11-07T18:57:46.717Z,32.97
2018-11-07T19:00:17.431Z,31.17
2018-11-07T19:02:47.133Z,31.57
2018-11-07T19:05:16.235Z,31.23
2018-11-07T19:07:45.233Z,29.97
2018-11-07T19:10:16.476Z,32.27
2018-11-07T19:12:46.289Z,32.63
2018-11-07T19:15:15.918Z,29.00
2018-11-07T19:17:45.833Z,28.37
2018-11-07T19:20:15.629Z,29.07
2018-11-07T19:22:44.649Z,28.67
2018-11-07T19:25:15.991Z,29.37
2018-11-07T19:27:45.053Z,29.93
2018-11-07T19:30:15.813Z,29.57
2018-11-07T19:32:45.927Z,30.43
2018-11-07T19:35:15.835Z,30.50
2018-11-07T19:37:46.693Z,31.43
2018-11-07T19:40:18.543Z,42.53
2018-11-07T19:42:48.919Z,48.37
2018-11-07T19:45:19.286Z,44.53
2018-11-07T19:47:49.976Z,40.07
2018-11-07T19:50:21.235Z,42.13
2018-11-07T19:52:51.256Z,46.57
2018-11-07T19:55:22.567Z,41.90
2018-11-07T19:57:58.228Z,46.60
2018-11-07T20:00:27.709Z,47.03
2018-11-07T20:02:57.130Z,45.33
2018-11-07T20:05:27.155Z,42.97
2018-11-07T20:07:56.436Z,45.70
2018-11-07T20:10:26.156Z,50.40
2018-11-07T20:12:55.604Z,43.20
2018-11-07T20:15:25.273Z,45.63
2018-11-07T20:20:11.801Z,49.67
2018-11-07T20:29:37.982Z,49.40
2018-11-07T20:32:11.747Z,46.03
2018-11-07T20:34:42.623Z,51.40
2018-11-07T20:37:13.087Z,53.33
2018-11-07T20:39:43.038Z,55.13
2018-11-07T20:42:12.905Z,54.60
2018-11-07T20:44:42.728Z,55.47
2018-11-07T20:47:12.652Z,53.63
2018-11-07T20:52:39.217Z,58.33
2018-11-07T20:55:13.591Z,54.93
2018-11-07T20:57:43.658Z,52.00
2018-11-07T21:00:28.030Z,53.87
2018-11-07T21:02:58.824Z,56.47
2018-11-07T21:08:07.386Z,59.30
2018-11-07T21:10:36.931Z,53.87
2018-11-07T21:13:07.906Z,60.47
2018-11-07T21:15:39.918Z,57.67
2018-11-07T21:18:11.032Z,58.17
2018-11-07T21:20:40.827Z,56.33
2018-11-07T21:23:12.206Z,58.73
2018-11-07T21:25:45.850Z,59.03
2018-11-07T21:28:18.111Z,56.30
2018-11-07T21:30:48.189Z,56.90
2018-11-07T21:33:17.866Z,64.50
2018-11-07T21:35:50.389Z,60.77
2018-11-07T21:38:21.130Z,58.30
2018-11-07T21:40:52.574Z,61.10
2018-11-07T21:43:23.538Z,57.60
2018-11-07T21:45:52.800Z,59.50
2018-11-07T21:48:23.012Z,54.10
2018-11-07T21:50:53.446Z,64.00
2018-11-07T21:53:23.529Z,57.63
2018-11-07T21:55:54.163Z,59.67
2018-11-07T21:58:24.867Z,61.07
2018-11-07T22:00:55.439Z,64.53
2018-11-07T22:03:27.909Z,61.13
2018-11-07T22:08:47.887Z,62.83
2018-11-07T22:11:17.606Z,62.90
2018-11-07T22:13:47.149Z,62.50
2018-11-07T22:16:16.744Z,63.77
2018-11-07T22:18:46.453Z,61.23
2018-11-07T22:21:16.297Z,59.00
2018-11-07T22:23:45.768Z,64.13
2018-11-07T22:26:15.256Z,63.63
2018-11-07T22:28:44.607Z,63.60
2018-11-07T22:31:15.941Z,58.77
2018-11-07T22:33:46.628Z,59.90
2018-11-07T22:36:16.341Z,52.20
2018-11-07T22:38:45.659Z,55.10
2018-11-07T22:41:15.198Z,52.93
2018-11-07T22:43:44.799Z,57.93
2018-11-07T22:46:14.515Z,58.07
2018-11-07T22:48:44.009Z,59.10
2018-11-07T22:51:13.834Z,51.77
2018-11-07T22:53:43.191Z,53.23
2018-11-07T22:56:12.670Z,51.17
2018-11-07T22:58:42.025Z,49.77
2018-11-07T23:01:43.172Z,48.57
2018-11-07T23:04:12.531Z,46.10
2018-11-07T23:06:41.659Z,44.10
2018-11-07T23:09:12.972Z,43.97
2018-11-07T23:11:43.378Z,43.30
2018-11-07T23:14:14.632Z,42.53
2018-11-07T23:16:43.918Z,44.37
2018-11-07T23:19:13.753Z,39.83
2018-11-07T23:21:43.205Z,45.47
2018-11-07T23:24:12.500Z,42.87
2018-11-07T23:26:41.906Z,46.00
2018-11-07T23:29:11.731Z,50.90
2018-11-07T23:31:41.310Z,48.20
2018-11-07T23:34:10.657Z,44.67
2018-11-07T23:36:41.150Z,45.47
2018-11-07T23:39:10.828Z,35.73
2018-11-07T23:41:40.069Z,38.40
2018-11-07T23:44:09.642Z,41.60
2018-11-07T23:46:39.031Z,35.33
2018-11-07T23:49:08.478Z,39.37
2018-11-07T23:51:43.756Z,34.87
2018-11-07T23:54:14.228Z,37.43
2018-11-07T23:56:43.822Z,38.40
2018-11-07T23:59:13.643Z,38.73
